Terminal Aerodrome Forecast
Issued by NWS Sterling, VA

Home | Current Version | Previous Version | Text Only | Print | Product List | Glossary On
Versions: 1 2 3 4 5 6 7 8 9 10 11 12 13 14 15 16 17
553
FTUS41 KLWX 301141
TAFMRB
TAF
KMRB 301141Z 3012/0112 02005KT P6SM BKN025
     FM301800 12007KT P6SM VCTS BKN020CB BKN050
     FM302100 13007KT P6SM BKN035
     FM010600 16004KT 4SM BR SCT035
     FM011000 18007KT 3SM BR BKN030=

USA.gov is the U.S. government's official web portal to all federal, state and local government web resources and services.